Time;durP1;ratioP1;P1;durP2;ratioP2;P2;SDS_P1;SDS_P2;PMS_P1;PMS_P2;Temp;Humidity;BMP_temperature;BMP_pressure;BME280_temperature;BME280_humidity;BME280_pressure;Samples;Min_cycle;Max_cycle;Signal;HPM_P1;HPM_P2
2023/03/04 00:00:10;;;;;;;;;;;7.20;92.30;;;;;;8392865;28;19967;-69
2023/03/04 00:04:12;;;;;;;;;;;7.20;91.70;;;;;;8395076;28;20019;-70
2023/03/04 00:08:14;;;;;;;;;;;7.20;92.10;;;;;;8389415;28;20385;-70
2023/03/04 00:12:15;;;;;;;;;;;7.10;93.30;;;;;;8386711;28;19964;-70
2023/03/04 00:16:17;;;;;;;;;;;7.10;92.80;;;;;;8388816;28;19958;-70
2023/03/04 00:20:18;;;;;;;;;;;7.10;92.90;;;;;;8390561;28;19931;-70
2023/03/04 00:24:20;;;;;;;;;;;7.10;92.50;;;;;;8390424;28;19932;-70
2023/03/04 00:28:22;;;;;;;;;;;7.10;93.30;;;;;;8392350;28;19968;-70
2023/03/04 00:32:23;;;;;;;;;;;7.10;92.60;;;;;;8392966;28;19925;-70
2023/03/04 00:36:25;;;;;;;;;;;7.10;93.30;;;;;;8374064;28;20399;-70
2023/03/04 00:40:27;;;;;;;;;;;7.10;94.10;;;;;;8387526;28;20359;-70
2023/03/04 00:44:29;;;;;;;;;;;7.10;94.00;;;;;;8387069;28;19987;-70
2023/03/04 00:48:30;;;;;;;;;;;7.00;94.30;;;;;;8389550;28;19934;-70
2023/03/04 00:52:32;;;;;;;;;;;7.00;93.40;;;;;;8391131;28;19986;-70
2023/03/04 00:56:33;;;;;;;;;;;7.00;92.80;;;;;;8393780;28;19924;-70
2023/03/04 01:00:35;;;;;;;;;;;6.90;93.10;;;;;;8389307;28;19931;-70
2023/03/04 01:04:37;;;;;;;;;;;7.00;93.40;;;;;;8376838;28;19970;-70
2023/03/04 01:08:38;;;;;;;;;;;7.00;94.10;;;;;;8389145;28;19924;-70
2023/03/04 01:12:41;;;;;;;;;;;7.00;93.10;;;;;;8391709;28;19983;-70
2023/03/04 01:16:42;;;;;;;;;;;7.00;93.50;;;;;;8391261;28;19929;-70
2023/03/04 01:20:44;;;;;;;;;;;7.00;95.10;;;;;;8392979;28;19928;-70
2023/03/04 01:24:46;;;;;;;;;;;7.00;94.00;;;;;;8392380;28;19935;-70
2023/03/04 01:28:47;;;;;;;;;;;7.00;94.10;;;;;;8386629;28;19947;-70
2023/03/04 01:32:49;;;;;;;;;;;6.90;94.50;;;;;;8385699;28;20027;-70
2023/03/04 01:36:51;;;;;;;;;;;6.90;93.70;;;;;;8370167;28;19975;-69
2023/03/04 01:40:52;;;;;;;;;;;6.80;94.30;;;;;;8379463;28;20011;-70
2023/03/04 01:44:54;;;;;;;;;;;6.80;93.80;;;;;;8391597;28;19932;-69
2023/03/04 01:48:56;;;;;;;;;;;6.80;95.90;;;;;;8391453;28;20018;-69
2023/03/04 01:52:57;;;;;;;;;;;6.80;93.90;;;;;;8392802;28;19924;-69
2023/03/04 01:56:59;;;;;;;;;;;6.80;94.30;;;;;;8389130;28;19928;-69
2023/03/04 02:01:01;;;;;;;;;;;6.80;94.00;;;;;;8391291;28;19925;-69
2023/03/04 02:05:03;;;;;;;;;;;6.80;94.60;;;;;;8391529;28;20014;-70
2023/03/04 02:09:05;;;;;;;;;;;6.80;94.30;;;;;;8386305;28;19924;-70
2023/03/04 02:13:07;;;;;;;;;;;6.70;94.70;;;;;;8391798;28;19991;-70
2023/03/04 02:17:12;;;;;;;;;;;6.70;94.20;;;;;;8384581;28;19931;-70
2023/03/04 02:21:16;;;;;;;;;;;6.70;94.90;;;;;;8389706;28;19925;-69
2023/03/04 02:25:22;;;;;;;;;;;6.70;95.20;;;;;;8386690;28;19931;-70
2023/03/04 02:29:24;;;;;;;;;;;6.70;95.00;;;;;;8367483;28;19932;-70
2023/03/04 02:33:26;;;;;;;;;;;6.70;94.70;;;;;;8387612;28;19929;-70
2023/03/04 02:37:27;;;;;;;;;;;6.70;94.60;;;;;;8379663;28;19924;-70
2023/03/04 02:41:30;;;;;;;;;;;6.60;95.90;;;;;;8383376;28;19979;-70
2023/03/04 02:45:31;;;;;;;;;;;6.60;94.90;;;;;;8390336;28;20403;-70
2023/03/04 02:49:34;;;;;;;;;;;6.60;95.70;;;;;;8388626;28;20348;-70
2023/03/04 02:53:36;;;;;;;;;;;6.70;94.80;;;;;;8384727;28;20355;-70
2023/03/04 02:57:37;;;;;;;;;;;6.70;95.30;;;;;;8386706;28;20015;-70
2023/03/04 03:01:39;;;;;;;;;;;6.70;94.90;;;;;;8371374;28;20002;-70
2023/03/04 03:05:41;;;;;;;;;;;6.60;95.00;;;;;;8386050;28;19925;-70
2023/03/04 03:09:42;;;;;;;;;;;6.60;96.50;;;;;;8373118;28;19924;-69
2023/03/04 03:13:44;;;;;;;;;;;6.60;95.00;;;;;;8391327;28;19925;-69
2023/03/04 03:17:46;;;;;;;;;;;6.70;95.40;;;;;;8383916;28;19925;-69
2023/03/04 03:21:48;;;;;;;;;;;6.70;95.40;;;;;;8385266;28;19931;-69
2023/03/04 03:25:50;;;;;;;;;;;6.60;95.40;;;;;;8382804;28;19968;-69
2023/03/04 03:29:52;;;;;;;;;;;6.60;95.00;;;;;;8388187;28;19928;-69
2023/03/04 03:33:53;;;;;;;;;;;6.60;96.40;;;;;;8372462;28;20019;-69
2023/03/04 03:37:55;;;;;;;;;;;6.60;95.30;;;;;;8371141;28;20300;-69
2023/03/04 03:41:56;;;;;;;;;;;6.60;94.70;;;;;;8378017;28;19929;-69
2023/03/04 03:45:58;;;;;;;;;;;6.60;96.50;;;;;;8368429;28;19932;-69
2023/03/04 03:50:00;;;;;;;;;;;6.60;95.40;;;;;;8384819;28;20291;-69
2023/03/04 03:54:01;;;;;;;;;;;6.60;95.90;;;;;;8385186;28;20368;-69
2023/03/04 03:58:03;;;;;;;;;;;6.60;96.30;;;;;;8385869;28;20391;-69
2023/03/04 04:02:05;;;;;;;;;;;6.50;95.50;;;;;;8388812;28;19931;-69
2023/03/04 04:06:07;;;;;;;;;;;6.50;96.40;;;;;;8388957;28;20372;-70
2023/03/04 04:10:09;;;;;;;;;;;6.50;95.70;;;;;;8385553;28;19964;-70
2023/03/04 04:14:12;;;;;;;;;;;6.50;96.60;;;;;;8391961;28;19974;-70
2023/03/04 04:18:14;;;;;;;;;;;6.50;96.20;;;;;;8373302;28;20407;-70
2023/03/04 04:22:16;;;;;;;;;;;6.50;97.00;;;;;;8388580;28;20283;-70
2023/03/04 04:26:18;;;;;;;;;;;6.40;96.90;;;;;;8393832;28;19924;-70
2023/03/04 04:30:20;;;;;;;;;;;6.40;96.30;;;;;;8375468;28;19935;-69
2023/03/04 04:34:21;;;;;;;;;;;6.40;96.30;;;;;;8396032;28;19938;-69
2023/03/04 04:38:24;;;;;;;;;;;6.30;96.30;;;;;;8386745;28;19924;-69
2023/03/04 04:42:25;;;;;;;;;;;6.30;96.30;;;;;;8377996;28;19986;-70
2023/03/04 04:46:27;;;;;;;;;;;6.40;96.70;;;;;;8392741;28;19971;-70
2023/03/04 04:50:29;;;;;;;;;;;6.40;97.80;;;;;;8395327;28;20101;-69
2023/03/04 04:54:33;;;;;;;;;;;6.40;98.70;;;;;;8390414;28;19928;-69
2023/03/04 04:58:35;;;;;;;;;;;6.30;97.90;;;;;;8383813;28;19925;-70
2023/03/04 05:02:37;;;;;;;;;;;6.30;98.00;;;;;;8391246;28;19924;-70
2023/03/04 05:06:39;;;;;;;;;;;6.30;98.00;;;;;;8370924;28;19971;-70
2023/03/04 05:10:40;;;;;;;;;;;6.30;96.90;;;;;;8390684;28;19924;-70
2023/03/04 05:14:42;;;;;;;;;;;6.30;98.30;;;;;;8394198;28;19932;-70
2023/03/04 05:18:44;;;;;;;;;;;6.20;98.10;;;;;;8374811;28;19931;-69
2023/03/04 05:22:45;;;;;;;;;;;6.20;98.70;;;;;;8372963;28;19924;-69
2023/03/04 05:26:47;;;;;;;;;;;6.20;99.90;;;;;;8388645;28;19983;-69
2023/03/04 05:30:49;;;;;;;;;;;6.20;99.30;;;;;;8386001;28;20435;-69
2023/03/04 05:34:50;;;;;;;;;;;6.20;99.40;;;;;;8384759;28;19924;-70
2023/03/04 05:38:52;;;;;;;;;;;6.20;99.60;;;;;;8385793;28;20002;-69
2023/03/04 05:42:54;;;;;;;;;;;6.20;99.00;;;;;;8382080;28;19978;-70
2023/03/04 05:46:57;;;;;;;;;;;6.20;98.80;;;;;;8379931;28;20217;-70
2023/03/04 05:51:00;;;;;;;;;;;6.30;99.00;;;;;;8370999;28;20479;-70
2023/03/04 05:55:01;;;;;;;;;;;6.30;98.60;;;;;;8366708;28;19925;-70
2023/03/04 05:59:03;;;;;;;;;;;6.30;98.50;;;;;;8387825;28;19925;-70
2023/03/04 06:03:04;;;;;;;;;;;6.20;98.60;;;;;;8388671;28;20372;-70
2023/03/04 06:07:06;;;;;;;;;;;6.20;99.70;;;;;;8386907;28;19931;-69
2023/03/04 06:11:08;;;;;;;;;;;6.20;99.90;;;;;;8386055;28;19925;-69
2023/03/04 06:15:10;;;;;;;;;;;6.20;99.90;;;;;;8380859;28;19924;-69
2023/03/04 06:19:11;;;;;;;;;;;6.20;99.60;;;;;;8387585;28;19947;-70
2023/03/04 06:23:13;;;;;;;;;;;6.20;99.30;;;;;;8391471;28;19939;-70
2023/03/04 06:27:15;;;;;;;;;;;6.20;99.90;;;;;;8389634;28;19936;-70
2023/03/04 06:31:17;;;;;;;;;;;6.20;99.90;;;;;;8385161;28;19931;-70
2023/03/04 06:35:18;;;;;;;;;;;6.20;99.90;;;;;;8386023;28;19935;-70
2023/03/04 06:39:20;;;;;;;;;;;6.20;99.90;;;;;;8369454;28;19965;-70
2023/03/04 06:43:22;;;;;;;;;;;6.20;99.90;;;;;;8367656;28;19928;-70
2023/03/04 06:47:23;;;;;;;;;;;6.30;99.90;;;;;;8385923;28;20281;-70
2023/03/04 06:51:25;;;;;;;;;;;6.30;99.90;;;;;;8383192;28;19929;-70
2023/03/04 06:55:27;;;;;;;;;;;6.30;99.90;;;;;;8384331;28;19971;-70
2023/03/04 06:59:28;;;;;;;;;;;6.30;99.90;;;;;;8388099;28;19955;-69
2023/03/04 07:03:30;;;;;;;;;;;6.20;99.90;;;;;;8389748;28;19972;-69
2023/03/04 07:07:32;;;;;;;;;;;6.30;99.90;;;;;;8388976;28;19928;-69
2023/03/04 07:11:33;;;;;;;;;;;6.30;99.90;;;;;;8391368;28;19932;-70
2023/03/04 07:15:36;;;;;;;;;;;6.30;99.90;;;;;;8380963;28;19925;-70
2023/03/04 07:19:37;;;;;;;;;;;6.30;99.90;;;;;;8386180;28;20490;-70
2023/03/04 07:23:39;;;;;;;;;;;6.40;99.90;;;;;;8387333;28;19931;-70
2023/03/04 07:27:41;;;;;;;;;;;6.40;99.90;;;;;;8385660;28;19931;-70
2023/03/04 07:31:42;;;;;;;;;;;6.40;99.90;;;;;;8387455;28;19932;-70
2023/03/04 07:35:44;;;;;;;;;;;6.50;99.90;;;;;;8386146;28;19925;-70
2023/03/04 07:39:46;;;;;;;;;;;6.60;99.90;;;;;;8384962;28;19935;-70
2023/03/04 07:43:47;;;;;;;;;;;6.60;99.90;;;;;;8382068;28;20315;-70
2023/03/04 07:47:49;;;;;;;;;;;6.70;99.90;;;;;;8377266;28;19924;-70
2023/03/04 07:51:51;;;;;;;;;;;6.80;99.90;;;;;;8395447;28;19924;-70
2023/03/04 07:55:53;;;;;;;;;;;6.90;99.90;;;;;;8389576;28;19975;-70
2023/03/04 07:59:55;;;;;;;;;;;6.90;99.90;;;;;;8391681;28;19928;-70
2023/03/04 08:03:56;;;;;;;;;;;6.90;99.90;;;;;;8392510;28;20244;-70
2023/03/04 08:07:58;;;;;;;;;;;7.00;99.90;;;;;;8368058;28;19935;-70
2023/03/04 08:12:00;;;;;;;;;;;7.10;99.90;;;;;;8386009;28;19928;-70
2023/03/04 08:16:02;;;;;;;;;;;7.10;99.90;;;;;;8381629;28;19932;-70
2023/03/04 08:20:04;;;;;;;;;;;7.20;99.90;;;;;;8385902;28;19924;-70
2023/03/04 08:24:08;;;;;;;;;;;7.30;99.90;;;;;;8380323;28;19925;-69
2023/03/04 08:28:12;;;;;;;;;;;7.30;99.90;;;;;;8364602;28;19925;-69
2023/03/04 08:32:24;;;;;;;;;;;7.40;99.90;;;;;;8377952;28;19932;-69
2023/03/04 08:36:26;;;;;;;;;;;7.40;99.90;;;;;;8378738;28;19936;-69
2023/03/04 08:40:27;;;;;;;;;;;7.40;99.90;;;;;;8385410;28;19925;-70
2023/03/04 08:44:29;;;;;;;;;;;7.50;99.90;;;;;;8369254;28;19931;-70
2023/03/04 08:48:31;;;;;;;;;;;7.50;99.90;;;;;;8392224;28;19924;-70
2023/03/04 08:52:32;;;;;;;;;;;7.60;99.90;;;;;;8391673;28;19928;-70
2023/03/04 08:56:34;;;;;;;;;;;7.70;99.90;;;;;;8387867;28;19931;-70
2023/03/04 09:00:37;;;;;;;;;;;7.80;99.90;;;;;;8392831;28;19930;-70
2023/03/04 09:04:39;;;;;;;;;;;7.90;99.90;;;;;;8388704;28;19928;-69
2023/03/04 09:08:41;;;;;;;;;;;8.00;99.90;;;;;;8389970;28;19980;-70
2023/03/04 09:12:42;;;;;;;;;;;8.00;99.90;;;;;;8386837;28;20011;-70
2023/03/04 09:16:44;;;;;;;;;;;8.00;99.90;;;;;;8386376;28;19925;-70
2023/03/04 09:20:46;;;;;;;;;;;7.90;99.90;;;;;;8366222;28;19925;-70
2023/03/04 09:24:47;;;;;;;;;;;7.90;99.90;;;;;;8370912;28;20406;-70
2023/03/04 09:28:50;;;;;;;;;;;7.90;99.90;;;;;;8392266;28;19924;-70
2023/03/04 09:32:52;;;;;;;;;;;7.90;99.90;;;;;;8393872;28;19925;-70
2023/03/04 09:36:53;;;;;;;;;;;7.80;99.90;;;;;;8383367;28;20396;-70
2023/03/04 09:40:55;;;;;;;;;;;7.80;99.90;;;;;;8377764;28;19931;-70
2023/03/04 09:44:57;;;;;;;;;;;7.70;99.90;;;;;;8389713;28;19925;-70
2023/03/04 09:48:59;;;;;;;;;;;7.60;99.90;;;;;;8376149;28;19925;-70
2023/03/04 09:53:13;;;;;;;;;;;7.70;99.90;;;;;;8360453;28;20445;-70
2023/03/04 09:57:38;;;;;;;;;;;7.80;99.90;;;;;;8384330;28;19979;-70
2023/03/04 10:01:50;;;;;;;;;;;8.00;99.90;;;;;;8348276;28;19968;-70
2023/03/04 10:05:55;;;;;;;;;;;8.10;99.90;;;;;;8390958;28;20020;-70
2023/03/04 10:10:02;;;;;;;;;;;8.30;99.90;;;;;;8388159;28;19924;-70
2023/03/04 10:14:22;;;;;;;;;;;8.60;99.90;;;;;;8391096;28;19928;-70
2023/03/04 10:18:30;;;;;;;;;;;8.80;99.90;;;;;;8387454;28;19982;-70
2023/03/04 10:27:34;;;;;;;;;;;9.00;99.90;;;;;;8381100;28;19919;-70
2023/03/04 10:31:37;;;;;;;;;;;8.70;99.90;;;;;;8385839;28;19955;-70
2023/03/04 10:35:39;;;;;;;;;;;8.60;99.90;;;;;;8386502;28;19924;-70
2023/03/04 10:39:43;;;;;;;;;;;8.60;99.90;;;;;;8383312;28;20293;-70
2023/03/04 10:43:49;;;;;;;;;;;8.90;99.90;;;;;;8384244;28;19982;-70
2023/03/04 10:47:52;;;;;;;;;;;9.30;99.90;;;;;;8390540;28;19925;-70
2023/03/04 10:52:02;;;;;;;;;;;9.70;99.90;;;;;;8388306;28;19925;-70
2023/03/04 10:56:23;;;;;;;;;;;9.90;99.90;;;;;;8371232;28;19932;-70
2023/03/04 11:00:25;;;;;;;;;;;9.80;99.90;;;;;;8386116;28;20026;-70
2023/03/04 11:04:31;;;;;;;;;;;9.50;99.90;;;;;;8384311;28;19970;-70
2023/03/04 11:08:33;;;;;;;;;;;9.30;99.90;;;;;;8382444;28;20019;-70
2023/03/04 11:12:34;;;;;;;;;;;9.10;99.90;;;;;;8391169;28;19932;-70
2023/03/04 11:16:36;;;;;;;;;;;9.10;99.90;;;;;;8387171;28;19963;-70
2023/03/04 11:20:41;;;;;;;;;;;9.00;99.90;;;;;;8388564;28;20588;-70
2023/03/04 11:24:43;;;;;;;;;;;9.00;99.90;;;;;;8394323;28;20019;-70
2023/03/04 11:28:48;;;;;;;;;;;9.80;99.90;;;;;;8397257;28;19924;-70
2023/03/04 11:32:52;;;;;;;;;;;11.00;99.90;;;;;;8394935;28;19936;-70
2023/03/04 11:37:02;;;;;;;;;;;11.90;99.90;;;;;;8396721;28;19931;-70
2023/03/04 11:41:24;;;;;;;;;;;12.40;99.90;;;;;;8369356;28;19975;-70
2023/03/04 11:45:35;;;;;;;;;;;12.20;99.90;;;;;;8365757;28;19942;-70
2023/03/04 11:49:56;;;;;;;;;;;11.60;99.90;;;;;;8355248;28;19971;-70
2023/03/04 11:54:05;;;;;;;;;;;10.80;99.90;;;;;;8347747;28;20416;-70
2023/03/04 11:58:17;;;;;;;;;;;10.30;99.90;;;;;;8368634;28;20406;-70
2023/03/04 12:02:20;;;;;;;;;;;10.00;99.90;;;;;;8370930;28;19947;-70
2023/03/04 12:06:33;;;;;;;;;;;9.90;99.90;;;;;;8364476;28;19925;-70
2023/03/04 12:10:38;;;;;;;;;;;9.80;99.90;;;;;;8362414;28;19943;-70
2023/03/04 12:14:51;;;;;;;;;;;9.90;99.90;;;;;;8360746;28;20023;-70
2023/03/04 12:19:01;;;;;;;;;;;10.30;99.90;;;;;;8364918;28;20063;-70
2023/03/04 12:23:22;;;;;;;;;;;11.20;99.90;;;;;;8383611;28;19931;-70
2023/03/04 12:27:31;;;;;;;;;;;12.40;99.90;;;;;;8362352;28;19932;-70
2023/03/04 12:31:40;;;;;;;;;;;12.90;99.90;;;;;;8360091;28;20479;-70
2023/03/04 12:35:55;;;;;;;;;;;12.90;99.90;;;;;;8365642;28;19991;-70
2023/03/04 12:40:16;;;;;;;;;;;12.40;99.90;;;;;;8362750;28;19986;-70
2023/03/04 12:44:19;;;;;;;;;;;11.70;99.90;;;;;;8366909;28;20346;-70
2023/03/04 12:48:26;;;;;;;;;;;11.10;99.90;;;;;;8362008;28;20373;-70
2023/03/04 12:52:28;;;;;;;;;;;10.60;99.90;;;;;;8377306;28;19987;-70
2023/03/04 12:56:35;;;;;;;;;;;10.20;99.90;;;;;;8360008;28;19924;-70
2023/03/04 13:00:40;;;;;;;;;;;9.90;99.90;;;;;;8377539;28;19972;-70
2023/03/04 13:05:02;;;;;;;;;;;9.80;99.90;;;;;;8362588;28;19986;-70
2023/03/04 13:09:10;;;;;;;;;;;9.90;99.90;;;;;;8340450;28;19931;-70
2023/03/04 13:13:47;;;;;;;;;;;10.30;99.90;;;;;;8360146;28;19933;-70
2023/03/04 13:17:55;;;;;;;;;;;10.70;99.90;;;;;;8320162;28;19931;-70
2023/03/04 13:21:57;;;;;;;;;;;11.10;99.90;;;;;;8359879;28;20364;-70
2023/03/04 13:25:58;;;;;;;;;;;11.30;99.90;;;;;;8360382;28;19928;-70
2023/03/04 13:30:00;;;;;;;;;;;11.50;99.90;;;;;;8362225;28;19929;-70
2023/03/04 13:34:03;;;;;;;;;;;11.50;99.90;;;;;;8362115;28;19942;-70
2023/03/04 13:38:18;;;;;;;;;;;11.60;99.90;;;;;;8361630;28;20452;-70
2023/03/04 13:42:40;;;;;;;;;;;11.50;99.90;;;;;;8360818;28;19968;-70
2023/03/04 13:46:42;;;;;;;;;;;11.20;99.90;;;;;;8360271;28;19948;-70
2023/03/04 13:50:45;;;;;;;;;;;10.80;99.90;;;;;;8364449;28;19928;-70
2023/03/04 13:54:47;;;;;;;;;;;10.50;99.90;;;;;;8347123;28;20448;-70
2023/03/04 13:58:50;;;;;;;;;;;10.30;99.90;;;;;;8361187;28;20410;-70
2023/03/04 14:02:51;;;;;;;;;;;10.20;99.90;;;;;;8364892;28;19967;-70
2023/03/04 14:06:56;;;;;;;;;;;10.20;99.90;;;;;;8359116;28;19933;-70
2023/03/04 14:10:58;;;;;;;;;;;10.20;99.90;;;;;;8365029;28;19956;-70
2023/03/04 14:15:03;;;;;;;;;;;10.10;99.90;;;;;;8360123;28;19972;-70
2023/03/04 14:19:06;;;;;;;;;;;10.10;99.90;;;;;;8345140;28;20011;-70
2023/03/04 14:23:26;;;;;;;;;;;10.10;99.90;;;;;;8365374;28;19925;-70
2023/03/04 14:27:29;;;;;;;;;;;10.00;99.90;;;;;;8359497;28;20407;-70
2023/03/04 14:31:34;;;;;;;;;;;9.90;99.90;;;;;;8361189;28;20340;-70
2023/03/04 14:35:36;;;;;;;;;;;9.80;99.90;;;;;;8345658;28;19994;-70
2023/03/04 14:39:38;;;;;;;;;;;9.60;99.90;;;;;;8358565;28;19939;-70
2023/03/04 14:43:43;;;;;;;;;;;9.40;99.90;;;;;;8374113;28;20059;-70
2023/03/04 14:47:47;;;;;;;;;;;9.40;99.90;;;;;;8378117;28;19929;-70
2023/03/04 14:51:51;;;;;;;;;;;9.30;99.90;;;;;;8359239;28;19928;-70
2023/03/04 14:56:07;;;;;;;;;;;9.40;99.90;;;;;;8355224;28;19925;-70
2023/03/04 15:00:14;;;;;;;;;;;9.40;99.90;;;;;;8360547;28;19924;-70
2023/03/04 15:04:18;;;;;;;;;;;9.50;99.90;;;;;;8350645;28;19933;-70
2023/03/04 15:08:19;;;;;;;;;;;9.40;99.90;;;;;;8366335;28;19925;-70
2023/03/04 15:12:22;;;;;;;;;;;9.40;99.90;;;;;;8368509;28;19931;-70
2023/03/04 15:16:25;;;;;;;;;;;9.40;99.90;;;;;;8365685;28;20407;-69
2023/03/04 15:20:28;;;;;;;;;;;9.30;99.90;;;;;;8371534;28;19924;-70
2023/03/04 15:24:30;;;;;;;;;;;9.30;99.90;;;;;;8339344;28;19974;-70
2023/03/04 15:28:33;;;;;;;;;;;9.20;99.90;;;;;;8360543;28;20387;-70
2023/03/04 15:32:35;;;;;;;;;;;9.20;99.90;;;;;;8360890;28;19933;-70
2023/03/04 15:36:37;;;;;;;;;;;9.20;99.90;;;;;;8356903;28;19955;-69
2023/03/04 15:40:41;;;;;;;;;;;9.20;99.90;;;;;;8357593;28;19965;-70
2023/03/04 15:44:43;;;;;;;;;;;9.10;99.90;;;;;;8361201;28;20372;-70
2023/03/04 15:48:45;;;;;;;;;;;9.10;99.90;;;;;;8361972;28;20002;-70
2023/03/04 15:52:47;;;;;;;;;;;9.00;99.90;;;;;;8358682;28;19924;-70
2023/03/04 15:56:51;;;;;;;;;;;8.90;99.90;;;;;;8353412;28;19931;-70
2023/03/04 16:00:53;;;;;;;;;;;8.90;99.90;;;;;;8357517;28;19925;-70
2023/03/04 16:04:54;;;;;;;;;;;8.90;99.90;;;;;;8356140;28;19932;-70
2023/03/04 16:08:57;;;;;;;;;;;8.90;99.90;;;;;;8366298;28;20304;-70
2023/03/04 16:12:59;;;;;;;;;;;8.90;99.90;;;;;;8346035;28;19935;-70
2023/03/04 16:17:00;;;;;;;;;;;8.80;99.90;;;;;;8342623;28;19974;-70
2023/03/04 16:21:02;;;;;;;;;;;8.80;99.90;;;;;;8362595;28;19933;-70
2023/03/04 16:25:08;;;;;;;;;;;8.80;99.90;;;;;;8348057;28;19924;-70
2023/03/04 16:29:10;;;;;;;;;;;8.80;99.90;;;;;;8370501;28;19932;-70
2023/03/04 16:33:13;;;;;;;;;;;8.70;99.90;;;;;;8347974;28;20411;-70
2023/03/04 16:37:17;;;;;;;;;;;8.70;99.90;;;;;;8362105;28;20443;-70
2023/03/04 16:41:21;;;;;;;;;;;8.70;99.90;;;;;;8377759;28;19939;-70
2023/03/04 16:45:24;;;;;;;;;;;8.70;99.90;;;;;;8346315;28;19940;-70
2023/03/04 16:49:29;;;;;;;;;;;8.60;99.90;;;;;;8365369;28;19978;-70
2023/03/04 16:53:32;;;;;;;;;;;8.50;99.90;;;;;;8369924;28;19963;-70
2023/03/04 16:57:34;;;;;;;;;;;8.40;99.90;;;;;;8349556;28;19928;-69
2023/03/04 17:01:35;;;;;;;;;;;8.30;99.90;;;;;;8359111;28;19925;-70
2023/03/04 17:05:37;;;;;;;;;;;8.20;99.90;;;;;;8343164;28;19929;-70
2023/03/04 17:09:39;;;;;;;;;;;8.20;99.90;;;;;;8358179;28;19968;-70
2023/03/04 17:13:41;;;;;;;;;;;8.20;99.90;;;;;;8356731;28;20312;-70
2023/03/04 17:17:43;;;;;;;;;;;8.20;99.90;;;;;;8348355;28;20055;-69
2023/03/04 17:21:45;;;;;;;;;;;8.20;99.90;;;;;;8349344;28;19936;-69
2023/03/04 17:25:53;;;;;;;;;;;8.20;99.90;;;;;;8357369;28;19932;-69
2023/03/04 17:29:55;;;;;;;;;;;8.20;99.90;;;;;;8360097;28;19933;-70
2023/03/04 17:33:56;;;;;;;;;;;8.20;99.90;;;;;;8368039;28;19932;-69
2023/03/04 17:37:58;;;;;;;;;;;8.10;99.90;;;;;;8366894;28;19939;-69
2023/03/04 17:42:00;;;;;;;;;;;8.10;99.90;;;;;;8372744;28;20032;-69
2023/03/04 17:46:03;;;;;;;;;;;8.00;99.90;;;;;;8359652;28;20020;-69
2023/03/04 17:50:06;;;;;;;;;;;8.00;99.90;;;;;;8360841;28;19971;-70
2023/03/04 17:54:08;;;;;;;;;;;7.90;99.90;;;;;;8359333;28;20377;-70
2023/03/04 17:58:10;;;;;;;;;;;7.90;99.90;;;;;;8362376;28;20399;-70
2023/03/04 18:02:14;;;;;;;;;;;7.90;99.90;;;;;;8365008;28;19924;-69
2023/03/04 18:06:17;;;;;;;;;;;7.80;99.90;;;;;;8363928;28;20241;-69
2023/03/04 18:10:18;;;;;;;;;;;7.80;99.90;;;;;;8358811;28;19928;-69
2023/03/04 18:14:20;;;;;;;;;;;7.80;99.90;;;;;;8383704;28;19951;-70
2023/03/04 18:18:22;;;;;;;;;;;7.80;99.90;;;;;;8369483;28;19971;-70
2023/03/04 18:22:23;;;;;;;;;;;7.80;99.90;;;;;;8364695;28;20394;-70
2023/03/04 18:26:25;;;;;;;;;;;7.80;99.90;;;;;;8342605;28;19939;-70
2023/03/04 18:30:27;;;;;;;;;;;7.80;99.90;;;;;;8356945;28;19925;-70
2023/03/04 18:34:29;;;;;;;;;;;7.70;99.90;;;;;;8355628;28;19931;-70
2023/03/04 18:38:31;;;;;;;;;;;7.70;99.90;;;;;;8375868;28;19925;-70
2023/03/04 18:42:32;;;;;;;;;;;7.70;99.90;;;;;;8360328;28;19932;-70
2023/03/04 18:46:45;;;;;;;;;;;7.60;99.90;;;;;;8356271;28;19935;-70
2023/03/04 18:50:48;;;;;;;;;;;7.60;99.90;;;;;;8356776;28;19933;-70
2023/03/04 18:54:51;;;;;;;;;;;7.60;99.90;;;;;;8354555;28;20035;-70
2023/03/04 18:58:53;;;;;;;;;;;7.60;99.90;;;;;;8359772;28;19946;-70
2023/03/04 19:03:15;;;;;;;;;;;7.60;99.90;;;;;;8356785;28;19932;-70
2023/03/04 19:07:16;;;;;;;;;;;7.60;99.90;;;;;;8354108;28;20029;-70
2023/03/04 19:11:18;;;;;;;;;;;7.60;99.90;;;;;;8326263;28;19933;-70
2023/03/04 19:15:20;;;;;;;;;;;7.60;99.90;;;;;;8321926;28;19933;-70
2023/03/04 19:19:21;;;;;;;;;;;7.60;99.90;;;;;;8335218;28;20508;-70
2023/03/04 19:23:23;;;;;;;;;;;7.50;99.90;;;;;;8335625;28;19925;-70
2023/03/04 19:27:25;;;;;;;;;;;7.40;99.90;;;;;;8324895;28;19932;-70
2023/03/04 19:31:27;;;;;;;;;;;7.30;99.90;;;;;;8324260;28;19936;-70
2023/03/04 19:35:31;;;;;;;;;;;7.30;99.90;;;;;;8325262;28;20025;-70
2023/03/04 19:39:32;;;;;;;;;;;7.20;99.90;;;;;;8326858;28;19929;-70
2023/03/04 19:43:35;;;;;;;;;;;7.20;99.90;;;;;;8337641;28;20024;-69
2023/03/04 19:47:38;;;;;;;;;;;7.10;99.90;;;;;;8333063;28;20396;-69
2023/03/04 19:51:40;;;;;;;;;;;7.10;99.90;;;;;;8336790;28;20380;-70
2023/03/04 19:55:41;;;;;;;;;;;7.10;99.90;;;;;;8330450;28;19968;-70
2023/03/04 19:59:43;;;;;;;;;;;7.10;99.90;;;;;;8331113;28;19967;-70
2023/03/04 20:03:45;;;;;;;;;;;7.00;99.90;;;;;;8337136;28;20032;-69
2023/03/04 20:07:46;;;;;;;;;;;6.90;99.90;;;;;;8366088;28;20493;-70
2023/03/04 20:11:48;;;;;;;;;;;6.90;99.90;;;;;;8358634;28;20399;-70
2023/03/04 20:15:59;;;;;;;;;;;6.90;99.90;;;;;;8366330;28;20311;-70
2023/03/04 20:20:01;;;;;;;;;;;6.80;99.90;;;;;;8364607;28;19929;-70
2023/03/04 20:24:03;;;;;;;;;;;6.80;99.90;;;;;;8344229;28;20296;-69
2023/03/04 20:28:05;;;;;;;;;;;6.70;99.90;;;;;;8364443;28;20398;-70
2023/03/04 20:32:06;;;;;;;;;;;6.70;99.90;;;;;;8367739;28;20369;-70
2023/03/04 20:36:08;;;;;;;;;;;6.60;99.90;;;;;;8360629;28;20416;-69
2023/03/04 20:40:10;;;;;;;;;;;6.60;99.90;;;;;;8362711;28;20420;-70
2023/03/04 20:44:12;;;;;;;;;;;6.60;99.90;;;;;;8362734;28;20501;-70
2023/03/04 20:48:14;;;;;;;;;;;6.60;99.90;;;;;;8358030;28;19929;-70
2023/03/04 20:52:17;;;;;;;;;;;6.60;99.90;;;;;;8364263;28;19929;-70
2023/03/04 20:56:19;;;;;;;;;;;6.50;99.90;;;;;;8362451;28;19968;-70
2023/03/04 21:00:20;;;;;;;;;;;6.60;99.90;;;;;;8368493;28;19946;-69
2023/03/04 21:04:22;;;;;;;;;;;6.60;99.90;;;;;;8360563;28;19929;-69
2023/03/04 21:18:43;;;;;;;;;;;6.50;99.90;;;;;;8359394;28;20009;-70
2023/03/04 21:22:45;;;;;;;;;;;6.50;99.90;;;;;;8342701;28;20407;-70
2023/03/04 21:26:46;;;;;;;;;;;6.50;99.90;;;;;;8356927;28;19933;-70
2023/03/04 21:35:51;;;;;;;;;;;6.50;99.90;;;;;;8358542;28;20012;-70
2023/03/04 21:39:53;;;;;;;;;;;6.50;99.90;;;;;;8360834;28;19924;-70
2023/03/04 21:43:55;;;;;;;;;;;6.50;99.90;;;;;;8363157;28;20012;-70
2023/03/04 21:47:56;;;;;;;;;;;6.40;99.90;;;;;;8363909;28;19934;-70
2023/03/04 21:51:58;;;;;;;;;;;6.40;99.90;;;;;;8356948;28;19928;-70
2023/03/04 21:56:00;;;;;;;;;;;6.40;99.90;;;;;;8353915;28;20261;-70
2023/03/04 22:00:02;;;;;;;;;;;6.40;99.90;;;;;;8355883;28;19940;-70
2023/03/04 22:04:05;;;;;;;;;;;6.30;99.90;;;;;;8383801;28;19924;-70
2023/03/04 22:08:07;;;;;;;;;;;6.30;99.90;;;;;;8383581;28;19928;-70
2023/03/04 22:12:09;;;;;;;;;;;6.30;99.90;;;;;;8379493;28;20007;-70
2023/03/04 22:16:10;;;;;;;;;;;6.20;99.90;;;;;;8366624;28;21314;-69
2023/03/04 22:20:13;;;;;;;;;;;6.20;99.90;;;;;;8387175;28;19925;-69
2023/03/04 22:24:33;;;;;;;;;;;6.20;99.90;;;;;;8378985;28;19928;-70
2023/03/04 22:28:36;;;;;;;;;;;6.10;99.90;;;;;;8379826;28;19972;-70
2023/03/04 22:32:38;;;;;;;;;;;6.10;99.90;;;;;;8385399;28;20296;-70
2023/03/04 22:36:40;;;;;;;;;;;6.00;99.90;;;;;;8384508;28;19924;-70
2023/03/04 22:40:42;;;;;;;;;;;5.90;99.90;;;;;;8379978;28;20303;-70
2023/03/04 22:44:44;;;;;;;;;;;5.90;99.90;;;;;;8384087;28;19930;-70
2023/03/04 22:48:50;;;;;;;;;;;5.80;99.90;;;;;;8378357;28;19929;-70
2023/03/04 22:52:51;;;;;;;;;;;5.80;99.90;;;;;;8375122;28;20006;-70
2023/03/04 22:56:53;;;;;;;;;;;5.80;99.90;;;;;;8379585;28;19924;-70
2023/03/04 23:00:55;;;;;;;;;;;5.80;99.90;;;;;;8381006;28;20364;-70
2023/03/04 23:04:57;;;;;;;;;;;5.80;99.90;;;;;;8377228;28;19924;-70
2023/03/04 23:08:59;;;;;;;;;;;5.80;99.90;;;;;;8379094;28;19928;-70
2023/03/04 23:13:00;;;;;;;;;;;5.80;99.90;;;;;;8388019;28;19924;-70
2023/03/04 23:17:02;;;;;;;;;;;5.80;99.90;;;;;;8388484;28;20011;-70
2023/03/04 23:21:07;;;;;;;;;;;5.80;99.90;;;;;;8385995;28;20279;-70
2023/03/04 23:25:09;;;;;;;;;;;5.80;99.90;;;;;;8392218;28;19924;-70
2023/03/04 23:29:13;;;;;;;;;;;5.70;99.90;;;;;;8399551;28;19924;-70
2023/03/04 23:33:14;;;;;;;;;;;5.70;99.90;;;;;;8389459;28;19924;-70
2023/03/04 23:37:16;;;;;;;;;;;5.70;99.90;;;;;;8364220;28;19937;-69
2023/03/04 23:41:19;;;;;;;;;;;5.70;99.90;;;;;;8378673;28;19936;-70
2023/03/04 23:45:21;;;;;;;;;;;5.60;99.90;;;;;;8386256;28;19924;-70
2023/03/04 23:49:23;;;;;;;;;;;5.60;99.90;;;;;;8394295;28;20390;-70
